Naples, FL (34117)

6:36 PM EDT on July 29, 2016 (GMT -0400)
Chrysler Florida Evaluation Center | | Change Station

Elev 26 ft 26.17 °N, 81.50 °W | Updated 50 seconds ago

Clear
Clear
80.3 °F
Feels Like 85 °F
N
2.1
Wind Variable Wind from NE
Gusts 2.5 mph

Today
High -- | Low -- °F
--% Chance of Precip.
Yesterday
High -- | Low -- °F
Precip. -- in
Pressure 30.03 in
Visibility 10.0 miles
Clouds Clear
Heat Index 85 °F
Dew Point 74 °F
Humidity 79%
Rainfall 0.00 in
Snow Depth Not available.
6:50 AM 8:14 PM
Waning Crescent, 18% visible
METAR KAPF 292153Z AUTO 29008KT 10SM CLR 31/24 A3003 RMK AO2 LTG DSNT E SLP167 T03110239
Pressure 30.03 in
Visibility 10.0 miles
Clouds Clear
Heat Index 85 °F
Dew Point 74 °F
Humidity 79%
Rainfall 0.00 in
Snow Depth Not available.
6:50 AM 8:14 PM
Waning Crescent, 18% visible
METAR KAPF 292153Z AUTO 29008KT 10SM CLR 31/24 A3003 RMK AO2 LTG DSNT E SLP167 T03110239

10-Day Weather Forecast

Almanac

Astronomy

Jul. 29, 2016 Rise Set
Actual Time
Civil Twilight
Nautical Twilight
Astronomical Twilight
Moon
Length of Visible Light
Length of Day
Tomorrow will be .
, % of the Moon is Illuminated

Today's Extremes

State Highs State Lows

Community

WunderPhotos

Upload Photos

1,928,436 photos uploaded!

WunderBlog® & News

Nearby

Air Quality

  Air Quality AQ Index Pollutant
Not available.

Snow Depth

Station Depth Elevation

Earthquake Activity

City Distance Mag. Time & Date
Minimum magnitude displayed is 2.5.

Coastal Water Temperatures

Place Temperature

Stations

Nearby Weather Stations

Station Location Temp. Windchill Dew Point Humidity Wind Precip. Elev Updated Type
                   

Watches & Warnings

There are currently no watches in effect.